Time;durP1;ratioP1;P1;durP2;ratioP2;P2;SDS_P1;SDS_P2;PMS_P1;PMS_P2;Temp;Humidity;BMP_temperature;BMP_pressure;BME280_temperature;BME280_humidity;BME280_pressure;Samples;Min_cycle;Max_cycle;Signal;HPM_P1;HPM_P2
2022/07/16 00:01:25;;;;;;;7.97;2.35;;;15.30;99.90;;;;;;4957411;28;20058;-92
2022/07/16 00:03:56;;;;;;;9.82;2.58;;;15.30;99.90;;;;;;4958341;28;20045;-92
2022/07/16 00:06:23;;;;;;;7.90;2.83;;;15.30;99.90;;;;;;4956862;28;20086;-93
2022/07/16 00:08:51;;;;;;;5.85;2.40;;;15.30;99.90;;;;;;4942235;28;20144;-92
2022/07/16 00:11:17;;;;;;;9.73;2.42;;;15.30;99.90;;;;;;4957780;28;20050;-92
2022/07/16 00:13:43;;;;;;;5.97;2.30;;;15.40;99.90;;;;;;4957608;28;20096;-91
2022/07/16 00:16:10;;;;;;;7.32;2.30;;;15.40;99.90;;;;;;4957290;28;20474;-92
2022/07/16 00:21:22;;;;;;;9.05;2.35;;;15.50;99.90;;;;;;4972274;28;20082;-92
2022/07/16 00:23:48;;;;;;;4.90;2.08;;;15.50;99.90;;;;;;4957429;28;20056;-92
2022/07/16 00:26:14;;;;;;;6.40;2.17;;;15.50;99.90;;;;;;4956774;28;20045;-91
2022/07/16 00:28:39;;;;;;;7.20;2.10;;;15.60;99.90;;;;;;4957546;28;20054;-92
2022/07/16 00:31:05;;;;;;;6.28;2.40;;;15.60;99.90;;;;;;4956846;28;20139;-92
2022/07/16 00:33:31;;;;;;;7.70;2.53;;;15.70;99.90;;;;;;4957310;28;20491;-93
2022/07/16 00:35:57;;;;;;;15.15;3.00;;;15.70;99.90;;;;;;4956741;28;20557;-94
2022/07/16 00:38:23;;;;;;;7.70;3.28;;;15.70;99.90;;;;;;4957162;28;20046;-96
2022/07/16 00:40:48;;;;;;;9.88;2.83;;;15.70;99.90;;;;;;4957751;28;20054;-96
2022/07/16 00:43:15;;;;;;;6.60;3.17;;;15.50;99.90;;;;;;4957842;28;20042;-96
2022/07/16 00:45:41;;;;;;;13.88;3.42;;;15.40;99.90;;;;;;4956981;28;20057;-96
2022/07/16 00:48:08;;;;;;;7.03;3.17;;;15.40;99.90;;;;;;4958009;28;20046;-96
2022/07/16 00:50:36;;;;;;;9.57;3.40;;;15.30;99.90;;;;;;4956226;28;20133;-96
2022/07/16 00:53:03;;;;;;;9.00;2.47;;;15.30;99.90;;;;;;4957748;28;20043;-96
2022/07/16 00:55:29;;;;;;;7.10;2.10;;;15.30;99.90;;;;;;4956806;28;20097;-96
2022/07/16 00:57:56;;;;;;;5.13;2.15;;;15.30;99.90;;;;;;4956899;28;20046;-95
2022/07/16 01:00:22;;;;;;;5.03;1.70;;;15.30;99.90;;;;;;4956931;28;20042;-95
2022/07/16 01:02:48;;;;;;;6.07;1.58;;;15.30;99.90;;;;;;4957353;28;20406;-96
2022/07/16 01:05:14;;;;;;;5.35;1.70;;;15.30;99.90;;;;;;4956700;28;20046;-96
2022/07/16 01:07:40;;;;;;;9.57;1.70;;;15.20;99.90;;;;;;4957711;28;20050;-96
2022/07/16 01:10:06;;;;;;;4.80;1.20;;;15.20;99.90;;;;;;4958453;28;20177;-96
2022/07/16 01:12:32;;;;;;;6.18;1.10;;;15.20;99.90;;;;;;4956733;28;20098;-96
2022/07/16 01:14:58;;;;;;;6.68;1.25;;;15.20;99.90;;;;;;4957008;28;20057;-96
2022/07/16 01:17:24;;;;;;;4.63;1.05;;;15.20;99.90;;;;;;4956767;28;20054;-95
2022/07/16 01:19:50;;;;;;;4.90;1.40;;;15.20;99.90;;;;;;4955802;28;20049;-94
2022/07/16 01:22:19;;;;;;;8.07;1.00;;;15.20;99.90;;;;;;4957348;28;20053;-96
2022/07/16 01:24:45;;;;;;;3.67;1.00;;;15.20;99.90;;;;;;4956809;28;20042;-95
2022/07/16 01:27:11;;;;;;;7.15;1.00;;;15.30;99.90;;;;;;4957875;28;20050;-95
2022/07/16 01:29:37;;;;;;;4.68;1.25;;;15.30;99.90;;;;;;4955386;28;20113;-95
2022/07/16 01:32:03;;;;;;;6.10;0.93;;;15.30;99.90;;;;;;4953248;28;20058;-95
2022/07/16 01:34:29;;;;;;;7.13;1.48;;;15.30;99.90;;;;;;4955252;28;20150;-95
2022/07/16 01:36:58;;;;;;;6.30;1.38;;;15.20;99.90;;;;;;4956947;28;20054;-95
2022/07/16 01:39:25;;;;;;;4.50;0.90;;;15.20;99.90;;;;;;4956700;28;20050;-94
2022/07/16 01:41:53;;;;;;;4.47;1.08;;;15.20;99.90;;;;;;4957163;28;20125;-94
2022/07/16 01:44:18;;;;;;;6.40;1.30;;;15.30;99.90;;;;;;4956952;28;20043;-95
2022/07/16 01:46:44;;;;;;;8.32;1.17;;;15.20;99.90;;;;;;4957813;28;20054;-95
2022/07/16 01:49:10;;;;;;;6.25;2.00;;;15.20;99.90;;;;;;4957394;28;20475;-95
2022/07/16 01:51:35;;;;;;;10.43;1.48;;;15.20;99.90;;;;;;4963892;28;20089;-95
2022/07/16 01:54:01;;;;;;;24.08;1.27;;;15.30;99.90;;;;;;4956635;28;20141;-95
2022/07/16 01:56:27;;;;;;;8.57;1.20;;;15.30;99.90;;;;;;4957091;28;20137;-94
2022/07/16 01:58:53;;;;;;;6.57;1.30;;;15.30;99.90;;;;;;4957381;28;20560;-94
2022/07/16 02:01:19;;;;;;;6.32;1.27;;;15.30;99.90;;;;;;4940148;28;20058;-94
2022/07/16 02:03:45;;;;;;;7.15;1.02;;;15.20;99.90;;;;;;4957179;28;20384;-95
2022/07/16 02:06:10;;;;;;;7.07;1.30;;;15.20;99.90;;;;;;4956234;28;20050;-94
2022/07/16 02:08:37;;;;;;;13.27;1.58;;;15.10;99.90;;;;;;4956306;28;20089;-94
2022/07/16 02:11:03;;;;;;;6.90;1.27;;;15.10;99.90;;;;;;4956727;28;20050;-95
2022/07/16 02:13:28;;;;;;;5.43;1.10;;;15.10;99.90;;;;;;4956742;28;20035;-95
2022/07/16 02:15:54;;;;;;;13.45;1.63;;;15.00;99.90;;;;;;4958013;28;20061;-94
2022/07/16 02:18:20;;;;;;;8.13;1.30;;;15.00;99.90;;;;;;4956427;28;20129;-95
2022/07/16 02:20:46;;;;;;;9.52;1.40;;;15.00;99.90;;;;;;4956317;28;20058;-94
2022/07/16 02:23:12;;;;;;;13.27;1.45;;;14.90;99.90;;;;;;4956133;28;20395;-94
2022/07/16 02:25:37;;;;;;;7.40;1.20;;;14.90;99.90;;;;;;4956381;28;20046;-94
2022/07/16 02:28:09;;;;;;;7.18;1.35;;;14.80;99.90;;;;;;4958181;28;20059;-95
2022/07/16 02:30:38;;;;;;;10.80;1.38;;;14.70;99.90;;;;;;4958811;28;20042;-95
2022/07/16 02:33:05;;;;;;;7.85;1.20;;;14.70;99.90;;;;;;4976195;28;20050;-95
2022/07/16 02:35:31;;;;;;;3.92;1.30;;;14.60;99.90;;;;;;4958687;28;20148;-95
2022/07/16 02:37:58;;;;;;;11.95;1.60;;;14.50;99.90;;;;;;4960145;28;20050;-94
2022/07/16 02:40:24;;;;;;;8.95;1.40;;;14.50;99.90;;;;;;4958314;28;20156;-95
2022/07/16 02:42:50;;;;;;;7.28;1.35;;;14.40;99.90;;;;;;4975862;28;20046;-95
2022/07/16 02:45:15;;;;;;;7.57;1.25;;;14.40;99.90;;;;;;4958742;28;20441;-95
2022/07/16 02:47:41;;;;;;;6.53;1.40;;;14.40;99.90;;;;;;4959482;28;20105;-94
2022/07/16 02:50:08;;;;;;;9.50;1.67;;;14.30;99.90;;;;;;4958182;28;20038;-94
2022/07/16 02:52:34;;;;;;;6.15;1.30;;;14.30;99.90;;;;;;4960278;28;20046;-94
2022/07/16 02:55:00;;;;;;;5.18;1.48;;;14.30;99.90;;;;;;4959295;28;20046;-94
2022/07/16 02:57:26;;;;;;;6.07;1.13;;;14.20;99.90;;;;;;4958148;28;20050;-94
2022/07/16 02:59:51;;;;;;;9.60;1.67;;;14.20;99.90;;;;;;4959459;28;20105;-95
2022/07/16 03:02:17;;;;;;;8.02;2.00;;;14.10;99.90;;;;;;4960173;28;20081;-94
2022/07/16 03:04:43;;;;;;;6.28;1.33;;;14.10;99.90;;;;;;4958105;28;20133;-94
2022/07/16 03:07:08;;;;;;;5.95;1.50;;;14.10;99.90;;;;;;4958993;28;20425;-94
2022/07/16 03:09:34;;;;;;;6.30;1.48;;;14.00;99.90;;;;;;4959120;28;20100;-94
2022/07/16 03:12:00;;;;;;;9.45;1.80;;;14.00;99.90;;;;;;4960164;28;20469;-95
2022/07/16 03:14:26;;;;;;;4.15;1.40;;;14.00;99.90;;;;;;4967188;28;20077;-94
2022/07/16 03:16:52;;;;;;;6.85;1.55;;;13.90;99.90;;;;;;4978086;28;20048;-95
2022/07/16 03:19:17;;;;;;;7.60;2.47;;;13.90;99.90;;;;;;4977819;28;20046;-94
2022/07/16 03:21:43;;;;;;;10.95;1.90;;;13.80;99.90;;;;;;4977308;28;20046;-93
2022/07/16 03:24:09;;;;;;;5.32;1.73;;;13.80;99.90;;;;;;4978203;28;20042;-95
2022/07/16 03:26:34;;;;;;;8.55;1.95;;;13.90;99.90;;;;;;4977318;28;20397;-95
2022/07/16 03:29:00;;;;;;;6.75;1.95;;;13.80;99.90;;;;;;4977390;28;20062;-95
2022/07/16 03:31:26;;;;;;;9.63;2.05;;;13.80;99.90;;;;;;4977559;28;20056;-95
2022/07/16 03:33:52;;;;;;;6.13;1.60;;;13.90;99.90;;;;;;4978681;28;20042;-94
2022/07/16 03:36:17;;;;;;;8.23;1.98;;;13.90;99.90;;;;;;4980575;28;20502;-94
2022/07/16 03:41:29;;;;;;;7.10;1.80;;;13.90;99.90;;;;;;4993802;28;20060;-93
2022/07/16 03:43:54;;;;;;;7.60;1.65;;;13.90;99.90;;;;;;4979340;28;20026;-94
2022/07/16 03:46:20;;;;;;;8.55;1.80;;;13.90;99.90;;;;;;4977017;28;20046;-94
2022/07/16 03:48:46;;;;;;;8.85;1.83;;;14.00;99.90;;;;;;4977933;28;20478;-94
2022/07/16 03:51:12;;;;;;;11.57;2.28;;;14.00;99.90;;;;;;4980471;28;20129;-94
2022/07/16 03:53:38;;;;;;;7.63;1.77;;;14.10;99.90;;;;;;4977127;28;20038;-94
2022/07/16 03:56:04;;;;;;;10.50;2.17;;;14.10;99.90;;;;;;4978522;28;20045;-94
2022/07/16 03:58:30;;;;;;;8.18;1.92;;;14.10;99.90;;;;;;4981498;28;20037;-94
2022/07/16 04:00:56;;;;;;;13.65;2.15;;;14.10;99.90;;;;;;4977188;28;20061;-95
2022/07/16 04:03:23;;;;;;;12.70;2.22;;;14.10;99.90;;;;;;4971780;28;20034;-94
2022/07/16 04:05:50;;;;;;;9.65;2.22;;;14.10;99.90;;;;;;4959425;28;20054;-94
2022/07/16 04:08:16;;;;;;;10.48;1.77;;;14.10;99.90;;;;;;4957189;28;20042;-95
2022/07/16 04:10:42;;;;;;;8.18;1.70;;;14.10;99.90;;;;;;4958050;28;20061;-94
2022/07/16 04:13:08;;;;;;;14.80;2.25;;;14.10;99.90;;;;;;4959547;28;20044;-94
2022/07/16 04:15:33;;;;;;;17.10;2.72;;;14.10;99.90;;;;;;4958971;28;20137;-95
2022/07/16 04:17:59;;;;;;;10.57;2.33;;;14.10;99.90;;;;;;4960038;28;20046;-94
2022/07/16 04:20:25;;;;;;;10.90;2.15;;;14.10;99.90;;;;;;4958738;28;20586;-94
2022/07/16 04:22:51;;;;;;;6.82;1.70;;;14.00;99.90;;;;;;4958072;28;20085;-94
2022/07/16 04:25:16;;;;;;;15.07;1.98;;;14.00;99.90;;;;;;4960736;28;20034;-95
2022/07/16 04:27:43;;;;;;;7.00;1.65;;;14.00;99.90;;;;;;4959138;28;20122;-94
2022/07/16 04:30:10;;;;;;;7.70;1.90;;;14.10;99.90;;;;;;4956069;28;20196;-94
2022/07/16 04:32:38;;;;;;;10.55;2.30;;;14.10;99.90;;;;;;4954904;28;20250;-95
2022/07/16 04:35:05;;;;;;;7.25;1.55;;;14.20;99.90;;;;;;4953574;28;20038;-95
2022/07/16 04:37:31;;;;;;;7.28;1.50;;;14.30;99.90;;;;;;4953996;28;20054;-95
2022/07/16 04:39:57;;;;;;;11.10;2.20;;;14.30;99.90;;;;;;4956609;28;20097;-95
2022/07/16 04:42:23;;;;;;;7.53;1.60;;;14.50;99.90;;;;;;4974289;28;20414;-95
2022/07/16 04:44:49;;;;;;;9.10;1.45;;;14.50;99.90;;;;;;4974028;28;20046;-93
2022/07/16 04:47:15;;;;;;;9.52;1.98;;;14.50;99.90;;;;;;4973420;28;20560;-94
2022/07/16 04:49:40;;;;;;;9.90;1.67;;;14.60;99.90;;;;;;4972329;28;20758;-94
2022/07/16 04:52:06;;;;;;;9.02;1.65;;;14.70;99.90;;;;;;4975453;28;20133;-93
2022/07/16 04:54:32;;;;;;;12.10;1.77;;;14.70;99.90;;;;;;4974300;28;20403;-94
2022/07/16 04:56:59;;;;;;;10.00;1.50;;;14.80;99.90;;;;;;4974225;28;20049;-94
2022/07/16 04:59:25;;;;;;;12.40;1.70;;;14.80;99.90;;;;;;4973322;28;20050;-94
2022/07/16 05:01:52;;;;;;;11.82;1.70;;;14.80;99.90;;;;;;4973622;28;20058;-94
2022/07/16 05:04:17;;;;;;;9.07;1.00;;;14.90;99.90;;;;;;4972943;28;20061;-93
2022/07/16 05:06:43;;;;;;;14.80;1.48;;;14.90;99.90;;;;;;4972296;28;20054;-94
2022/07/16 05:09:10;;;;;;;8.95;1.33;;;15.00;99.90;;;;;;4979679;28;20038;-94
2022/07/16 05:11:35;;;;;;;7.38;1.17;;;15.00;99.90;;;;;;4978949;28;20042;-94
2022/07/16 05:14:01;;;;;;;7.22;1.15;;;15.00;99.90;;;;;;4974564;28;20158;-94
2022/07/16 05:16:27;;;;;;;7.68;1.27;;;15.00;99.90;;;;;;4960357;28;20105;-95
2022/07/16 05:18:53;;;;;;;7.65;1.02;;;15.00;99.90;;;;;;4961601;28;20479;-94
2022/07/16 05:21:18;;;;;;;6.95;0.90;;;15.10;99.90;;;;;;4961753;28;20487;-94
2022/07/16 05:23:44;;;;;;;6.57;1.08;;;15.10;99.90;;;;;;4961067;28;20074;-94
2022/07/16 05:26:10;;;;;;;10.18;1.23;;;15.20;99.90;;;;;;4959357;28;20388;-94
2022/07/16 05:28:36;;;;;;;9.40;1.13;;;15.20;99.90;;;;;;4960220;28;20054;-95
2022/07/16 05:31:02;;;;;;;5.45;1.02;;;15.20;99.90;;;;;;4959657;28;20090;-94
2022/07/16 05:33:28;;;;;;;6.03;1.73;;;15.20;99.90;;;;;;4960019;28;20082;-94
2022/07/16 05:35:54;;;;;;;8.07;0.80;;;15.30;99.90;;;;;;4961683;28;20039;-93
2022/07/16 05:38:20;;;;;;;5.85;0.93;;;15.30;99.90;;;;;;4961717;28;20050;-95
2022/07/16 05:40:45;;;;;;;9.52;1.95;;;15.40;99.90;;;;;;4960100;28;20042;-93
2022/07/16 05:43:11;;;;;;;7.70;1.08;;;15.40;99.90;;;;;;4959795;28;20062;-94
2022/07/16 05:45:37;;;;;;;5.32;1.13;;;15.40;99.90;;;;;;4960803;28;20042;-93
2022/07/16 05:48:03;;;;;;;6.65;1.10;;;15.50;99.90;;;;;;4962255;28;20047;-94
2022/07/16 05:50:29;;;;;;;5.78;1.10;;;15.60;99.90;;;;;;4959397;28;20557;-93
2022/07/16 05:52:55;;;;;;;5.65;0.88;;;15.70;99.90;;;;;;4963157;28;20089;-93
2022/07/16 05:55:21;;;;;;;8.57;1.05;;;15.70;99.90;;;;;;4960433;28;20125;-95
2022/07/16 05:57:46;;;;;;;8.60;1.90;;;15.60;99.90;;;;;;4964757;28;20399;-93
2022/07/16 06:00:13;;;;;;;7.80;1.25;;;15.50;99.90;;;;;;4961201;28;20042;-94
2022/07/16 06:02:41;;;;;;;8.93;1.40;;;15.50;99.90;;;;;;4961868;28;20055;-92
2022/07/16 06:05:07;;;;;;;11.88;1.15;;;15.40;99.90;;;;;;4964937;28;20054;-93
2022/07/16 06:07:33;;;;;;;7.70;1.13;;;15.40;99.90;;;;;;4983708;28;20077;-93
2022/07/16 06:09:58;;;;;;;10.93;1.30;;;15.40;99.90;;;;;;4993359;28;20077;-93
2022/07/16 06:12:24;;;;;;;9.45;1.33;;;15.40;99.90;;;;;;4986790;28;20049;-94
2022/07/16 06:14:50;;;;;;;6.97;1.13;;;15.50;99.90;;;;;;4997219;28;20048;-93
2022/07/16 06:17:16;;;;;;;12.18;1.38;;;15.60;99.90;;;;;;4992996;28;20088;-93
2022/07/16 06:19:43;;;;;;;8.68;1.27;;;15.70;99.90;;;;;;4986459;28;20050;-93
2022/07/16 06:22:11;;;;;;;6.18;1.27;;;15.80;99.90;;;;;;4985236;28;20042;-92
2022/07/16 06:24:37;;;;;;;8.65;1.08;;;15.80;99.90;;;;;;4986173;28;20529;-93
2022/07/16 06:27:03;;;;;;;7.35;1.10;;;15.90;99.90;;;;;;4986494;28;20053;-92
2022/07/16 06:29:29;;;;;;;5.32;0.88;;;16.00;99.90;;;;;;4984224;28;20041;-93
2022/07/16 06:31:55;;;;;;;8.45;0.82;;;16.10;99.90;;;;;;4987993;28;20050;-92
2022/07/16 06:34:21;;;;;;;8.23;1.02;;;16.10;99.90;;;;;;4984407;28;20100;-93
2022/07/16 06:36:47;;;;;;;6.93;0.88;;;16.20;99.90;;;;;;4986980;28;20037;-92
2022/07/16 06:39:13;;;;;;;10.43;1.30;;;16.20;99.90;;;;;;4985016;28;20505;-93
2022/07/16 06:41:39;;;;;;;7.18;0.95;;;16.30;99.90;;;;;;4982712;28;20146;-93
2022/07/16 06:44:07;;;;;;;12.20;1.13;;;16.30;99.90;;;;;;4986147;28;20197;-93
2022/07/16 06:46:33;;;;;;;6.05;0.95;;;16.30;99.90;;;;;;4986817;28;20133;-93
2022/07/16 06:48:59;;;;;;;7.20;1.02;;;16.40;99.90;;;;;;4981228;28;20133;-93
2022/07/16 06:51:26;;;;;;;9.27;1.30;;;16.40;99.90;;;;;;4986846;28;20057;-93
2022/07/16 06:53:52;;;;;;;10.57;0.90;;;16.50;99.90;;;;;;4983540;28;20402;-92
2022/07/16 06:56:18;;;;;;;5.78;1.10;;;16.50;99.90;;;;;;4985447;28;20038;-93
2022/07/16 06:58:43;;;;;;;6.55;0.75;;;16.60;99.90;;;;;;4985328;28;20181;-92
2022/07/16 07:01:09;;;;;;;6.18;0.93;;;16.70;99.90;;;;;;4984942;28;20042;-92
2022/07/16 07:03:39;;;;;;;8.45;0.80;;;16.60;99.90;;;;;;4982724;28;20046;-93
2022/07/16 07:06:05;;;;;;;9.20;1.15;;;16.80;99.90;;;;;;4974686;28;20053;-94
2022/07/16 07:08:31;;;;;;;5.82;0.82;;;16.90;99.90;;;;;;4975526;28;20047;-92
2022/07/16 07:10:59;;;;;;;11.07;1.45;;;17.00;99.90;;;;;;4976375;28;20049;-92
2022/07/16 07:13:26;;;;;;;7.35;0.88;;;17.10;99.90;;;;;;4975510;28;20042;-95
2022/07/16 07:15:52;;;;;;;8.60;0.73;;;17.00;99.90;;;;;;4975067;28;20532;-92
2022/07/16 07:18:17;;;;;;;8.13;0.90;;;16.90;99.90;;;;;;4976927;28;20039;-93
2022/07/16 07:20:43;;;;;;;10.75;1.15;;;16.70;99.90;;;;;;4975571;28;20078;-92
2022/07/16 07:23:10;;;;;;;3.72;0.60;;;16.60;99.90;;;;;;4977697;28;20522;-92
2022/07/16 07:25:36;;;;;;;9.38;0.60;;;16.60;99.90;;;;;;4977714;28;20096;-93
2022/07/16 07:28:02;;;;;;;7.13;0.80;;;16.70;99.90;;;;;;4979279;28;20085;-92
2022/07/16 07:30:28;;;;;;;4.32;0.55;;;16.90;99.90;;;;;;4977291;28;20046;-92
2022/07/16 07:32:54;;;;;;;4.80;0.70;;;17.00;99.90;;;;;;4973660;28;20046;-94
2022/07/16 07:35:20;;;;;;;3.35;0.55;;;17.10;99.90;;;;;;4957316;28;20046;-93
2022/07/16 07:37:45;;;;;;;5.40;0.75;;;17.30;99.90;;;;;;4958777;28;20046;-93
2022/07/16 07:40:12;;;;;;;3.33;0.63;;;17.50;99.90;;;;;;4957522;28;20539;-94
2022/07/16 07:42:37;;;;;;;8.30;0.65;;;17.50;99.90;;;;;;4960678;28;20467;-93
2022/07/16 07:45:04;;;;;;;8.15;0.85;;;17.60;99.90;;;;;;4957724;28;20084;-94
2022/07/16 07:47:32;;;;;;;4.97;0.80;;;17.70;99.90;;;;;;4958337;28;20138;-95
2022/07/16 07:49:59;;;;;;;7.03;0.70;;;17.70;99.90;;;;;;4960422;28;20046;-93
2022/07/16 07:52:25;;;;;;;8.30;1.00;;;17.60;99.90;;;;;;4958756;28;20170;-94
2022/07/16 07:54:51;;;;;;;6.70;0.70;;;17.50;99.90;;;;;;4980704;28;20136;-94
2022/07/16 07:57:17;;;;;;;7.00;0.85;;;17.40;99.90;;;;;;4977494;28;20081;-95
2022/07/16 07:59:43;;;;;;;13.32;1.08;;;17.30;99.90;;;;;;4978859;28;20071;-94
2022/07/16 08:02:08;;;;;;;8.82;1.58;;;17.30;99.90;;;;;;4979406;28;20120;-94
2022/07/16 08:04:34;;;;;;;6.63;0.80;;;17.30;99.90;;;;;;4990012;28;20046;-95
2022/07/16 08:07:00;;;;;;;6.97;0.93;;;17.20;99.90;;;;;;4991252;28;20057;-94
2022/07/16 08:09:26;;;;;;;9.00;0.80;;;17.10;99.90;;;;;;4997119;28;20057;-94
2022/07/16 08:11:51;;;;;;;7.57;0.93;;;17.10;99.90;;;;;;4997647;28;20042;-93
2022/07/16 08:14:17;;;;;;;8.20;1.27;;;17.20;99.90;;;;;;4992829;28;20045;-94
2022/07/16 08:16:43;;;;;;;10.73;1.52;;;17.30;99.90;;;;;;4987249;28;20151;-93
2022/07/16 08:19:09;;;;;;;7.28;1.00;;;17.40;99.90;;;;;;4996347;28;20046;-94
2022/07/16 08:21:35;;;;;;;5.55;1.17;;;17.40;99.90;;;;;;4994860;28;20052;-92
2022/07/16 08:26:46;;;;;;;10.48;1.27;;;17.50;99.90;;;;;;5006920;28;20057;-94
2022/07/16 08:29:12;;;;;;;6.05;1.23;;;17.60;99.90;;;;;;4996006;28;20049;-93
2022/07/16 08:31:38;;;;;;;7.30;1.10;;;17.70;99.90;;;;;;4987352;28;20108;-94
2022/07/16 08:34:04;;;;;;;9.80;1.55;;;17.80;99.90;;;;;;4977433;28;20056;-94
2022/07/16 08:36:29;;;;;;;4.05;0.85;;;17.80;99.90;;;;;;4976133;28;20386;-95
2022/07/16 08:38:55;;;;;;;8.45;1.08;;;17.80;99.90;;;;;;4979026;28;20080;-94
2022/07/16 08:41:21;;;;;;;10.63;1.35;;;17.70;99.90;;;;;;4977152;28;20060;-94
2022/07/16 08:43:48;;;;;;;7.65;1.00;;;17.60;99.90;;;;;;4976979;28;20544;-92
2022/07/16 08:46:17;;;;;;;11.45;1.38;;;17.60;99.90;;;;;;4977222;28;20046;-95
2022/07/16 08:48:44;;;;;;;7.63;1.17;;;17.50;99.90;;;;;;4975953;28;20049;-94
2022/07/16 08:51:10;;;;;;;10.38;1.27;;;17.40;99.90;;;;;;4975913;28;20037;-95
2022/07/16 08:53:36;;;;;;;10.10;1.42;;;17.40;99.90;;;;;;4976603;28;20079;-94
2022/07/16 08:56:03;;;;;;;7.15;1.08;;;17.30;99.90;;;;;;4976379;28;20119;-95
2022/07/16 08:58:31;;;;;;;10.48;1.50;;;17.40;99.90;;;;;;4978198;28;20057;-95
2022/07/16 09:00:58;;;;;;;10.10;1.17;;;17.40;99.90;;;;;;4976862;28;20497;-95
2022/07/16 09:03:24;;;;;;;9.30;1.38;;;17.30;99.90;;;;;;4978078;28;20068;-93
2022/07/16 09:05:50;;;;;;;11.88;1.48;;;17.30;99.90;;;;;;4977238;28;20486;-93
2022/07/16 09:08:17;;;;;;;51.30;4.68;;;17.40;99.90;;;;;;4976674;28;20362;-94
2022/07/16 09:10:43;;;;;;;12.02;1.30;;;17.60;99.90;;;;;;4975852;28;20065;-93
2022/07/16 09:13:10;;;;;;;5.35;0.98;;;17.80;99.90;;;;;;4976947;28;20386;-92
2022/07/16 09:15:38;;;;;;;11.82;1.27;;;17.90;99.90;;;;;;4977820;28;20044;-92
2022/07/16 09:18:11;;;;;;;8.27;1.42;;;18.00;99.90;;;;;;4976440;28;20057;-93
2022/07/16 09:20:41;;;;;;;10.73;1.05;;;17.80;99.90;;;;;;4975758;28;20052;-94
2022/07/16 09:23:18;;;;;;;10.88;1.40;;;17.80;99.90;;;;;;4977962;28;20089;-93
2022/07/16 09:25:49;;;;;;;5.88;0.98;;;17.90;99.90;;;;;;4977756;28;20147;-93
2022/07/16 09:28:15;;;;;;;7.65;1.00;;;18.20;99.90;;;;;;4977493;28;20490;-94
2022/07/16 09:30:41;;;;;;;10.68;1.00;;;18.40;99.90;;;;;;4975944;28;20060;-93
2022/07/16 09:33:17;;;;;;;6.25;1.20;;;18.60;99.90;;;;;;4976424;28;20060;-93
2022/07/16 09:35:44;;;;;;;9.18;0.88;;;19.00;99.90;;;;;;4975780;28;20046;-92
2022/07/16 09:38:11;;;;;;;6.05;1.08;;;19.10;99.90;;;;;;4976251;28;20572;-93
2022/07/16 09:40:43;;;;;;;6.22;1.10;;;18.90;99.90;;;;;;4977151;28;20046;-93
2022/07/16 09:43:13;;;;;;;6.05;0.93;;;18.70;99.90;;;;;;4976159;28;20112;-94
2022/07/16 09:45:40;;;;;;;7.07;1.00;;;18.50;99.90;;;;;;4979215;28;20136;-93
2022/07/16 09:48:28;;;;;;;7.68;1.17;;;18.70;99.90;;;;;;4975869;28;20049;-93
2022/07/16 09:50:56;;;;;;;9.07;1.15;;;18.90;99.90;;;;;;4978766;28;20038;-93
2022/07/16 09:53:26;;;;;;;6.35;0.65;;;19.00;99.90;;;;;;4975147;28;20143;-93
2022/07/16 09:55:57;;;;;;;5.93;0.95;;;18.90;99.90;;;;;;4978646;28;20050;-94
2022/07/16 09:58:23;;;;;;;10.85;0.95;;;18.90;99.90;;;;;;4979756;28;20053;-93
2022/07/16 10:00:49;;;;;;;3.28;0.60;;;19.10;99.90;;;;;;4980471;28;20128;-93
2022/07/16 10:03:15;;;;;;;8.32;1.00;;;19.40;99.90;;;;;;4981359;28;20466;-89
2022/07/16 10:05:41;;;;;;;6.00;1.13;;;19.70;99.90;;;;;;4979344;28;20046;-91
2022/07/16 10:08:06;;;;;;;5.72;0.73;;;19.90;99.90;;;;;;4979341;28;20050;-90
2022/07/16 10:10:32;;;;;;;8.60;0.93;;;20.00;99.90;;;;;;4980077;28;20076;-90
2022/07/16 10:12:58;;;;;;;5.32;0.95;;;19.90;99.90;;;;;;4978772;28;20049;-90
2022/07/16 10:15:24;;;;;;;9.52;1.10;;;19.80;99.90;;;;;;4978584;28;20116;-90
2022/07/16 10:17:49;;;;;;;11.40;0.90;;;19.50;99.90;;;;;;4978985;28;20053;-91
2022/07/16 10:20:19;;;;;;;13.73;1.38;;;19.40;99.90;;;;;;4977505;28;20053;-90
2022/07/16 10:22:47;;;;;;;4.88;0.85;;;19.30;99.90;;;;;;4995086;28;20049;-89
2022/07/16 10:25:16;;;;;;;6.75;0.80;;;19.40;99.90;;;;;;4978612;28;20057;-90
2022/07/16 10:27:43;;;;;;;6.80;0.90;;;19.50;99.90;;;;;;4977766;28;20049;-90
2022/07/16 10:30:16;;;;;;;9.68;0.90;;;19.50;99.90;;;;;;4975133;28;20054;-90
2022/07/16 10:33:02;;;;;;;6.38;0.98;;;19.40;99.90;;;;;;4975070;28;20093;-91
2022/07/16 10:35:30;;;;;;;7.20;0.90;;;19.70;99.90;;;;;;4974263;28;20046;-90
2022/07/16 10:38:05;;;;;;;5.28;1.00;;;19.90;99.90;;;;;;4975805;28;20493;-90
2022/07/16 10:40:32;;;;;;;10.30;1.20;;;19.90;99.90;;;;;;4977529;28;20141;-90
2022/07/16 10:43:13;;;;;;;6.07;0.90;;;19.80;99.90;;;;;;4976977;28;20069;-90
2022/07/16 10:45:54;;;;;;;13.80;1.20;;;19.80;99.90;;;;;;4976721;28;20042;-90
2022/07/16 10:48:22;;;;;;;6.18;1.00;;;19.80;99.90;;;;;;4976488;28;20035;-91
2022/07/16 10:51:11;;;;;;;8.93;1.17;;;20.00;99.90;;;;;;4975101;28;20074;-90
2022/07/16 10:54:01;;;;;;;10.88;1.45;;;20.20;99.90;;;;;;4961186;28;20047;-89
2022/07/16 10:56:39;;;;;;;6.18;0.90;;;20.20;99.90;;;;;;4967202;28;20112;-91
2022/07/16 10:59:10;;;;;;;9.57;1.40;;;20.00;99.90;;;;;;4975659;28;20132;-91
2022/07/16 11:01:38;;;;;;;10.45;1.27;;;19.70;99.90;;;;;;4975385;28;20100;-90
2022/07/16 11:04:05;;;;;;;14.18;1.40;;;19.70;99.90;;;;;;4976666;28;20042;-90
2022/07/16 11:06:32;;;;;;;7.53;1.38;;;19.70;99.90;;;;;;4973292;28;20422;-89
2022/07/16 11:09:01;;;;;;;9.02;1.00;;;19.60;99.90;;;;;;4992741;28;20061;-90
2022/07/16 11:11:39;;;;;;;7.47;0.98;;;19.20;99.90;;;;;;4975865;28;20104;-90
2022/07/16 11:14:07;;;;;;;8.30;0.95;;;19.10;99.90;;;;;;4976274;28;20034;-90
2022/07/16 11:16:33;;;;;;;8.52;1.40;;;19.10;99.90;;;;;;4974405;28;20128;-89
2022/07/16 11:19:00;;;;;;;8.18;1.05;;;18.90;99.90;;;;;;4974782;28;20140;-90
2022/07/16 11:21:26;;;;;;;7.30;1.05;;;18.90;99.90;;;;;;4973473;28;20042;-89
2022/07/16 11:23:55;;;;;;;7.75;1.00;;;19.10;99.90;;;;;;4974670;28;20089;-92
2022/07/16 11:26:23;;;;;;;9.48;1.05;;;19.10;99.90;;;;;;4976276;28;20196;-92
2022/07/16 11:28:51;;;;;;;5.93;0.73;;;19.00;99.90;;;;;;4975522;28;20054;-91
2022/07/16 11:31:25;;;;;;;10.48;1.08;;;18.90;99.90;;;;;;4955949;28;20554;-90
2022/07/16 11:33:54;;;;;;;5.75;0.52;;;19.00;99.90;;;;;;4954808;28;20043;-90
2022/07/16 11:36:20;;;;;;;5.75;1.00;;;19.30;99.90;;;;;;4954151;28;20519;-90
2022/07/16 11:38:46;;;;;;;7.80;1.35;;;19.60;99.90;;;;;;4954349;28;20126;-91
2022/07/16 11:41:12;;;;;;;9.82;1.33;;;19.80;99.90;;;;;;4954396;28;20058;-90
2022/07/16 11:43:38;;;;;;;8.90;1.15;;;20.10;99.90;;;;;;4954995;28;20089;-90
2022/07/16 11:46:04;;;;;;;8.98;1.77;;;20.10;99.90;;;;;;4953591;28;20050;-91
2022/07/16 11:48:37;;;;;;;13.35;1.08;;;20.20;99.90;;;;;;4954855;28;20057;-90
2022/07/16 11:51:09;;;;;;;6.38;1.23;;;20.20;99.90;;;;;;4953263;28;20038;-91
2022/07/16 11:53:37;;;;;;;7.18;1.20;;;20.20;99.90;;;;;;4954902;28;20121;-89
2022/07/16 11:56:05;;;;;;;6.05;0.82;;;20.00;99.90;;;;;;4954471;28;20133;-90
2022/07/16 11:58:31;;;;;;;7.43;1.17;;;19.60;99.90;;;;;;4953991;28;20054;-89
2022/07/16 12:00:56;;;;;;;6.03;0.70;;;19.40;99.90;;;;;;4954477;28;20046;-90
2022/07/16 12:03:22;;;;;;;6.85;0.95;;;19.50;99.90;;;;;;4960515;28;20038;-89
2022/07/16 12:06:01;;;;;;;3.45;0.60;;;19.40;99.90;;;;;;4974511;28;20046;-89
2022/07/16 12:08:27;;;;;;;7.65;1.02;;;19.60;98.90;;;;;;4973543;28;20038;-89
2022/07/16 12:10:59;;;;;;;8.20;0.90;;;19.90;99.80;;;;;;4973572;28;20499;-90
2022/07/16 12:13:24;;;;;;;4.85;1.00;;;19.90;98.80;;;;;;4974931;28;20053;-90
2022/07/16 12:15:55;;;;;;;9.32;0.90;;;19.70;99.10;;;;;;4975245;28;20046;-89
2022/07/16 12:18:23;;;;;;;8.02;1.08;;;19.60;99.90;;;;;;4972241;28;20474;-89
2022/07/16 12:20:50;;;;;;;11.13;0.85;;;19.70;99.90;;;;;;4982693;28;20047;-89
2022/07/16 12:23:31;;;;;;;7.40;0.80;;;19.60;99.90;;;;;;4973210;28;20057;-89
2022/07/16 12:26:02;;;;;;;6.18;0.80;;;19.60;99.90;;;;;;4973967;28;20402;-90
2022/07/16 12:28:28;;;;;;;9.70;0.90;;;19.50;99.90;;;;;;4971972;28;20081;-89
2022/07/16 12:30:57;;;;;;;14.15;1.40;;;19.40;99.90;;;;;;4973648;28;20096;-90
2022/07/16 12:33:26;;;;;;;6.18;0.88;;;19.40;99.90;;;;;;4972130;28;20391;-89
2022/07/16 12:35:53;;;;;;;8.30;1.10;;;19.60;99.90;;;;;;4972526;28;20074;-89
2022/07/16 12:38:51;;;;;;;7.18;1.00;;;19.70;99.90;;;;;;4974353;28;20126;-90
2022/07/16 12:41:27;;;;;;;4.43;0.70;;;20.00;99.90;;;;;;4972296;28;20046;-90
2022/07/16 12:43:57;;;;;;;3.03;0.82;;;20.30;99.90;;;;;;4974170;28;20046;-89
2022/07/16 12:46:30;;;;;;;6.97;0.95;;;20.40;99.90;;;;;;4972050;28;20140;-89
2022/07/16 12:48:58;;;;;;;6.55;1.10;;;20.60;99.90;;;;;;4974762;28;20478;-90
2022/07/16 12:51:27;;;;;;;6.18;0.98;;;20.70;99.90;;;;;;4971939;28;20495;-90
2022/07/16 12:53:54;;;;;;;10.40;0.98;;;20.90;99.50;;;;;;4975100;28;20045;-90